Time;durP1;ratioP1;P1;durP2;ratioP2;P2;SDS_P1;SDS_P2;PMS_P1;PMS_P2;Temp;Humidity;BMP_temperature;BMP_pressure;BME280_temperature;BME280_humidity;BME280_pressure;Samples;Min_cycle;Max_cycle;Signal;HPM_P1;HPM_P2
2021/11/28 00:00:31;;;;;;;14.55;2.10;;;;;;;9.07;38.78;99827.25;4421981;32;20354;-70
2021/11/28 00:02:57;;;;;;;7.22;2.05;;;;;;;9.13;38.63;99831.88;4425801;32;20050;-70
2021/11/28 00:05:26;;;;;;;10.68;2.10;;;;;;;9.18;38.38;99836.13;4422190;32;20343;-70
2021/11/28 00:13:45;;;;;;;12.88;1.45;;;;;;;9.58;38.10;99829.50;3977406;32;15146170;-69
2021/11/28 00:16:03;;;;;;;13.57;0.85;;;;;;;9.58;38.10;99829.50;4430827;32;20434;-71
2021/11/28 00:18:30;;;;;;;11.75;1.55;;;;;;;8.99;38.66;99837.91;4436703;32;20138;-70
2021/11/28 00:20:56;;;;;;;7.62;1.40;;;;;;;9.07;38.55;99839.28;4437101;32;20099;-70
2021/11/28 00:23:22;;;;;;;8.05;1.23;;;;;;;9.19;38.38;99841.28;4437099;32;20088;-70
2021/11/28 00:25:48;;;;;;;8.73;1.73;;;;;;;9.04;38.25;99845.00;4434742;32;20088;-70
2021/11/28 00:28:16;;;;;;;7.40;1.10;;;;;;;9.29;38.05;99854.19;4434690;32;20079;-70
2021/11/28 00:30:41;;;;;;;8.95;1.20;;;;;;;9.23;38.07;99858.00;4434969;32;20504;-70
2021/11/28 00:33:07;;;;;;;5.82;1.17;;;;;;;9.10;38.55;99841.19;4436970;32;20097;-70
2021/11/28 00:35:33;;;;;;;5.75;0.98;;;;;;;9.10;38.38;99831.97;4438691;32;20520;-70
2021/11/28 00:37:59;;;;;;;8.18;1.10;;;;;;;8.98;38.43;99833.56;4433465;32;20057;-70
2021/11/28 00:40:25;;;;;;;6.82;1.00;;;;;;;8.99;38.46;99843.53;4437249;32;20392;-70
2021/11/28 00:42:51;;;;;;;6.07;1.08;;;;;;;9.16;38.07;99838.59;4437496;32;20106;-70
2021/11/28 00:45:17;;;;;;;5.90;0.93;;;;;;;8.99;38.20;99834.34;4435940;32;20077;-69
2021/11/28 00:47:43;;;;;;;3.75;0.90;;;;;;;8.92;37.91;99837.34;4435783;32;20437;-70
2021/11/28 00:52:46;;;;;;;6.70;1.15;;;;;;;9.10;38.30;99826.34;3999438;31;15017242;-71
2021/11/28 00:55:13;;;;;;;3.67;1.10;;;;;;;9.10;38.30;99826.34;4455005;32;20059;-71
2021/11/28 00:57:39;;;;;;;5.90;0.90;;;;;;;8.96;38.47;99826.84;4456415;32;20033;-71
2021/11/28 01:00:07;;;;;;;8.63;1.00;;;;;;;8.43;39.33;99822.84;4441991;32;20402;-70
2021/11/28 01:02:34;;;;;;;10.25;1.12;;;;;;;8.67;39.01;99817.72;4456465;32;20073;-70
2021/11/28 01:05:00;;;;;;;2.80;0.90;;;;;;;8.86;38.63;99822.31;4455883;32;20091;-70
2021/11/28 01:07:27;;;;;;;6.87;0.93;;;;;;;8.55;38.96;99816.47;4454033;32;20077;-70
2021/11/28 01:09:54;;;;;;;6.47;0.88;;;;;;;8.83;38.43;99835.22;4453935;32;20053;-71
2021/11/28 01:12:20;;;;;;;13.60;1.40;;;;;;;8.26;39.71;99812.97;4454019;32;20083;-70
2021/11/28 01:14:46;;;;;;;6.68;0.75;;;;;;;8.16;39.56;99823.22;4453694;32;20519;-70
2021/11/28 01:17:11;;;;;;;6.68;1.15;;;;;;;8.36;39.20;99831.47;4456516;32;20069;-70
2021/11/28 01:19:37;;;;;;;2.70;0.62;;;;;;;8.27;39.04;99828.53;4453309;32;20419;-70
2021/11/28 01:22:06;;;;;;;8.02;1.10;;;;;;;8.65;38.39;99829.38;4456915;32;20063;-70
2021/11/28 01:24:32;;;;;;;5.03;0.95;;;;;;;8.90;38.69;99828.63;4455493;32;20045;-70
2021/11/28 01:26:58;;;;;;;3.35;0.77;;;;;;;8.24;39.12;99829.44;4456961;32;20111;-70
2021/11/28 01:29:24;;;;;;;4.93;1.08;;;;;;;8.57;39.03;99832.87;4454696;32;20078;-70
2021/11/28 01:31:50;;;;;;;3.50;0.80;;;;;;;8.44;39.02;99834.88;4453767;32;20099;-70
2021/11/28 01:34:16;;;;;;;6.87;1.08;;;;;;;8.56;38.77;99826.47;4455836;32;20076;-70
2021/11/28 01:36:42;;;;;;;9.93;0.80;;;;;;;8.58;39.03;99814.78;4454276;32;20143;-70
2021/11/28 01:39:09;;;;;;;3.65;0.75;;;;;;;8.62;38.59;99816.25;4454119;32;20085;-70
2021/11/28 01:41:36;;;;;;;11.93;1.05;;;;;;;8.78;38.47;99821.78;4454082;32;20073;-70
2021/11/28 01:44:03;;;;;;;4.82;0.82;;;;;;;8.64;38.72;99819.41;4453059;32;20469;-70
2021/11/28 01:46:29;;;;;;;4.70;0.80;;;;;;;8.86;38.45;99819.50;4455581;32;20033;-70
2021/11/28 01:48:55;;;;;;;5.68;0.70;;;;;;;8.85;38.57;99820.75;4454943;32;20059;-70
2021/11/28 01:51:21;;;;;;;4.00;0.68;;;;;;;8.96;38.39;99824.03;4455025;32;20076;-70
2021/11/28 01:53:49;;;;;;;5.82;0.77;;;;;;;8.98;38.16;99819.53;4454226;32;20103;-70
2021/11/28 01:56:15;;;;;;;4.53;1.00;;;;;;;9.23;38.06;99818.69;4455315;32;20057;-70
2021/11/28 01:58:41;;;;;;;9.43;0.95;;;;;;;8.83;38.47;99812.78;4454749;32;20067;-69
2021/11/28 02:01:10;;;;;;;5.90;0.75;;;;;;;9.05;37.87;99810.87;4456437;32;20453;-70
2021/11/28 02:03:39;;;;;;;8.32;0.85;;;;;;;8.96;38.18;99810.75;4447250;32;20076;-70
2021/11/28 02:06:06;;;;;;;7.20;0.80;;;;;;;8.93;38.30;99811.66;4444718;32;20068;-70
2021/11/28 02:08:32;;;;;;;5.82;1.00;;;;;;;8.84;38.63;99814.34;4443016;32;20045;-70
2021/11/28 02:10:58;;;;;;;8.25;1.20;;;;;;;8.69;38.54;99820.88;4441997;32;20128;-70
2021/11/28 02:13:25;;;;;;;4.93;0.98;;;;;;;8.57;38.67;99828.03;4444700;32;20115;-69
2021/11/28 02:15:51;;;;;;;7.05;1.00;;;;;;;8.86;38.51;99813.91;4444537;32;20415;-70
2021/11/28 02:18:18;;;;;;;6.28;0.85;;;;;;;8.95;38.12;99820.41;4443919;32;20431;-69
2021/11/28 02:20:49;;;;;;;5.43;0.70;;;;;;;8.76;38.68;99824.25;4442130;32;20041;-70
2021/11/28 02:23:15;;;;;;;7.25;0.88;;;;;;;8.82;38.39;99832.87;4429192;32;20068;-69
2021/11/28 02:25:42;;;;;;;4.75;1.12;;;;;;;8.61;38.76;99827.91;4445657;32;20103;-70
2021/11/28 02:28:08;;;;;;;5.30;0.75;;;;;;;8.71;38.37;99818.41;4444683;32;20049;-70
2021/11/28 02:30:34;;;;;;;4.85;0.75;;;;;;;8.00;39.71;99816.88;4443003;32;20356;-69
2021/11/28 02:33:00;;;;;;;2.20;0.60;;;;;;;8.22;39.22;99815.06;4444681;32;20136;-69
2021/11/28 02:35:30;;;;;;;5.82;0.73;;;;;;;7.96;39.91;99822.59;4445056;32;20108;-69
2021/11/28 02:37:56;;;;;;;7.72;0.93;;;;;;;8.63;38.85;99831.88;4442748;32;20164;-69
2021/11/28 02:40:25;;;;;;;3.33;0.80;;;;;;;8.15;39.75;99832.06;4442658;32;20077;-70
2021/11/28 02:42:52;;;;;;;2.95;0.77;;;;;;;8.37;39.48;99829.47;4443710;32;20084;-70
2021/11/28 02:45:20;;;;;;;13.65;0.70;;;;;;;8.32;39.38;99821.59;4444779;32;20033;-70
2021/11/28 02:47:46;;;;;;;9.15;0.90;;;;;;;8.11;39.41;99814.56;4443783;32;20078;-70
2021/11/28 02:50:16;;;;;;;2.65;0.77;;;;;;;7.91;39.81;99816.75;4441865;32;20481;-70
2021/11/28 02:52:46;;;;;;;5.75;0.80;;;;;;;7.86;40.10;99806.88;4442541;32;20379;-69
2021/11/28 02:55:12;;;;;;;4.87;0.70;;;;;;;7.93;39.80;99809.50;4444298;32;20399;-70
2021/11/28 02:57:37;;;;;;;5.15;0.60;;;;;;;7.79;40.06;99795.87;4443581;32;20071;-70
2021/11/28 03:00:05;;;;;;;3.87;0.55;;;;;;;8.05;39.47;99794.72;4443872;32;20069;-70
2021/11/28 03:02:35;;;;;;;3.30;0.50;;;;;;;7.45;40.22;99792.00;4444049;32;20041;-70
2021/11/28 03:05:01;;;;;;;2.28;0.50;;;;;;;7.72;39.76;99795.28;4443576;32;20191;-70
2021/11/28 03:07:26;;;;;;;6.00;0.80;;;;;;;8.02;39.36;99800.44;4443925;32;20415;-70
2021/11/28 03:09:52;;;;;;;4.35;0.70;;;;;;;7.81;39.31;99807.41;4441223;32;20033;-70
2021/11/28 03:12:17;;;;;;;2.15;0.40;;;;;;;7.88;39.28;99792.41;4444520;32;20017;-70
2021/11/28 03:14:43;;;;;;;4.05;0.62;;;;;;;8.08;38.73;99793.81;4442354;32;20101;-70
2021/11/28 03:17:09;;;;;;;8.65;0.62;;;;;;;8.05;39.13;99802.34;4442758;32;20038;-70
2021/11/28 03:19:35;;;;;;;5.45;0.50;;;;;;;8.18;38.77;99797.56;4443470;32;20364;-70
2021/11/28 03:22:01;;;;;;;6.57;1.00;;;;;;;8.32;38.39;99797.19;4443442;32;20057;-70
2021/11/28 03:24:27;;;;;;;5.37;0.80;;;;;;;7.94;39.07;99801.84;4443128;32;20033;-70
2021/11/28 03:26:53;;;;;;;4.18;0.52;;;;;;;7.96;38.99;99802.19;4443242;32;20106;-69
2021/11/28 03:29:22;;;;;;;5.18;0.50;;;;;;;8.04;38.84;99803.59;4442327;32;20033;-70
2021/11/28 03:31:50;;;;;;;5.03;1.15;;;;;;;8.45;38.36;99802.78;4443151;32;20051;-70
2021/11/28 03:34:17;;;;;;;7.30;0.68;;;;;;;8.39;38.42;99801.75;4444643;32;20104;-70
2021/11/28 03:36:50;;;;;;;7.05;1.17;;;;;;;7.62;39.92;99813.94;4441335;32;20099;-70
2021/11/28 03:39:18;;;;;;;5.85;0.70;;;;;;;8.06;38.85;99817.91;4440644;32;20063;-69
2021/11/28 03:41:48;;;;;;;3.97;0.52;;;;;;;8.09;38.98;99814.22;4440467;32;20409;-69
2021/11/28 03:44:14;;;;;;;4.85;0.98;;;;;;;8.31;38.62;99811.63;4444808;32;20057;-69
2021/11/28 03:46:40;;;;;;;2.83;0.73;;;;;;;8.17;38.42;99805.16;4441381;32;20108;-70
2021/11/28 03:49:06;;;;;;;4.93;0.50;;;;;;;7.84;38.98;99800.94;4442617;32;20033;-70
2021/11/28 03:51:33;;;;;;;3.60;0.57;;;;;;;8.11;38.48;99804.13;4442321;32;20153;-70
2021/11/28 03:53:59;;;;;;;8.80;0.88;;;;;;;8.25;38.58;99805.00;4440953;32;20112;-70
2021/11/28 03:56:25;;;;;;;2.22;0.50;;;;;;;8.10;38.72;99810.19;4441318;32;20458;-70
2021/11/28 03:58:51;;;;;;;3.60;0.60;;;;;;;8.16;38.38;99806.41;4426193;32;21397;-70
2021/11/28 04:01:19;;;;;;;5.68;0.75;;;;;;;7.88;38.65;99804.41;4442483;32;20098;-70
2021/11/28 04:03:45;;;;;;;3.40;0.47;;;;;;;8.11;38.46;99800.56;4442275;32;20105;-70
2021/11/28 04:06:12;;;;;;;4.05;0.60;;;;;;;8.00;38.49;99786.88;4442945;32;20429;-70
2021/11/28 04:08:38;;;;;;;6.25;1.02;;;;;;;8.19;38.20;99797.09;4439568;32;20064;-70
2021/11/28 04:11:05;;;;;;;5.93;0.50;;;;;;;8.05;38.10;99791.12;4442250;32;20223;-70
2021/11/28 04:13:31;;;;;;;3.20;0.37;;;;;;;7.81;38.42;99798.22;4441733;32;20103;-70
2021/11/28 04:15:56;;;;;;;5.25;0.70;;;;;;;8.11;37.93;99794.97;4443017;32;20399;-70
2021/11/28 04:18:23;;;;;;;2.83;0.50;;;;;;;8.00;38.03;99797.28;4442214;32;20666;-70
2021/11/28 04:20:50;;;;;;;4.65;0.50;;;;;;;7.92;38.09;99799.50;4427413;32;20466;-70
2021/11/28 04:23:16;;;;;;;4.70;0.60;;;;;;;7.76;38.46;99802.34;4442239;32;20095;-70
2021/11/28 04:25:42;;;;;;;4.15;0.52;;;;;;;8.19;37.94;99797.09;4441683;32;20059;-69
2021/11/28 04:28:08;;;;;;;2.78;0.77;;;;;;;8.09;37.68;99792.59;4442212;32;20085;-70
2021/11/28 04:30:35;;;;;;;2.80;0.50;;;;;;;7.96;37.80;99783.38;4442402;32;20427;-70
2021/11/28 04:33:02;;;;;;;3.42;0.60;;;;;;;8.08;38.00;99779.81;4442816;32;20442;-70
2021/11/28 04:35:28;;;;;;;3.65;0.45;;;;;;;7.93;37.78;99789.09;4442631;32;20398;-70
2021/11/28 04:37:54;;;;;;;7.00;0.60;;;;;;;7.67;38.05;99776.22;4441093;32;20077;-70
2021/11/28 04:40:20;;;;;;;2.45;0.55;;;;;;;7.93;38.01;99787.06;4440047;32;20025;-70
2021/11/28 04:42:46;;;;;;;11.95;0.70;;;;;;;8.08;37.73;99784.66;4442226;32;20482;-70
2021/11/28 04:45:12;;;;;;;5.85;0.70;;;;;;;7.98;37.60;99791.34;4442923;32;20134;-70
2021/11/28 04:47:39;;;;;;;5.18;0.57;;;;;;;8.28;37.46;99790.09;4441290;32;20060;-70
2021/11/28 04:50:08;;;;;;;2.60;0.50;;;;;;;7.82;37.77;99782.97;4442591;32;20033;-70
2021/11/28 04:52:34;;;;;;;1.70;0.37;;;;;;;8.07;37.73;99778.25;4441553;32;20081;-70
2021/11/28 04:55:00;;;;;;;6.70;0.55;;;;;;;7.75;37.93;99791.59;4443386;32;20081;-70
2021/11/28 04:57:26;;;;;;;3.78;0.43;;;;;;;7.74;37.79;99778.81;4444421;32;20087;-70
2021/11/28 04:59:51;;;;;;;3.00;0.60;;;;;;;7.72;37.63;99789.66;4441707;32;21059;-70
2021/11/28 05:02:17;;;;;;;5.35;0.40;;;;;;;7.94;37.26;99788.63;4441523;32;20055;-70
2021/11/28 05:04:43;;;;;;;5.43;0.73;;;;;;;7.99;37.44;99788.09;4444073;32;20037;-70
2021/11/28 05:07:09;;;;;;;4.68;0.50;;;;;;;7.75;37.39;99781.19;4442637;32;20081;-70
2021/11/28 05:09:35;;;;;;;5.55;0.50;;;;;;;7.77;37.72;99769.53;4439776;32;20480;-70
2021/11/28 05:12:01;;;;;;;1.75;0.50;;;;;;;7.89;37.21;99766.00;4441595;32;20478;-70
2021/11/28 05:14:27;;;;;;;3.30;0.50;;;;;;;7.83;37.41;99774.13;4442389;32;20068;-70
2021/11/28 05:16:53;;;;;;;6.82;0.80;;;;;;;7.70;37.54;99783.75;4443337;32;20038;-70
2021/11/28 05:19:19;;;;;;;3.90;0.65;;;;;;;7.90;37.27;99775.97;4440044;32;20063;-70
2021/11/28 05:21:45;;;;;;;5.50;0.60;;;;;;;7.72;37.16;99775.66;4443057;32;20046;-70
2021/11/28 05:24:10;;;;;;;8.98;0.62;;;;;;;7.88;37.24;99786.81;4442527;32;20484;-70
2021/11/28 05:26:37;;;;;;;1.48;0.40;;;;;;;7.92;37.25;99782.69;4442294;32;20425;-70
2021/11/28 05:29:04;;;;;;;1.60;0.40;;;;;;;7.65;37.33;99789.88;4439340;32;20404;-70
2021/11/28 05:31:30;;;;;;;1.95;0.47;;;;;;;7.91;37.19;99786.72;4442352;32;20139;-70
2021/11/28 05:33:56;;;;;;;7.07;1.10;;;;;;;7.71;37.03;99797.28;4441192;32;20512;-70
2021/11/28 05:36:22;;;;;;;3.30;0.43;;;;;;;7.32;37.50;99800.34;4442200;32;20493;-70
2021/11/28 05:38:48;;;;;;;5.43;0.52;;;;;;;7.72;37.03;99795.28;4441468;32;20765;-70
2021/11/28 05:41:14;;;;;;;3.12;0.20;;;;;;;7.68;36.61;99800.19;4443642;32;20129;-70
2021/11/28 05:43:42;;;;;;;5.03;0.47;;;;;;;7.34;36.94;99794.31;4443890;32;20107;-70
2021/11/28 05:46:09;;;;;;;3.17;0.45;;;;;;;7.28;36.90;99810.06;4445224;32;20045;-70
2021/11/28 05:48:35;;;;;;;5.60;0.75;;;;;;;7.56;36.77;99804.50;4442965;32;20133;-70
2021/11/28 05:51:01;;;;;;;1.85;0.28;;;;;;;7.29;36.94;99818.03;4445408;32;20097;-70
2021/11/28 05:53:27;;;;;;;5.25;0.40;;;;;;;7.40;36.94;99814.94;4442656;32;20079;-69
2021/11/28 05:55:53;;;;;;;2.08;0.28;;;;;;;7.41;36.82;99814.50;4444829;32;20029;-69
2021/11/28 05:58:19;;;;;;;4.82;0.50;;;;;;;7.56;36.67;99823.31;4443245;32;20037;-70
2021/11/28 06:00:45;;;;;;;1.95;0.40;;;;;;;7.56;36.83;99818.50;4441497;32;20507;-69
2021/11/28 06:03:11;;;;;;;3.00;0.20;;;;;;;7.07;37.82;99814.19;4446191;32;20072;-69
2021/11/28 06:05:39;;;;;;;9.38;0.50;;;;;;;7.42;37.70;99818.87;4445144;32;20021;-69
2021/11/28 06:08:05;;;;;;;5.28;0.50;;;;;;;7.24;37.70;99826.94;4441705;32;20133;-69
2021/11/28 06:10:30;;;;;;;3.78;0.50;;;;;;;7.25;37.80;99822.94;4442436;32;20064;-69
2021/11/28 06:12:57;;;;;;;6.40;0.65;;;;;;;7.21;37.75;99827.03;4444595;32;20396;-69
2021/11/28 06:15:23;;;;;;;3.65;0.45;;;;;;;7.31;37.73;99818.37;4442936;32;20045;-69
2021/11/28 06:17:49;;;;;;;2.78;0.32;;;;;;;7.40;37.42;99826.91;4444804;32;20036;-68
2021/11/28 06:20:14;;;;;;;0.88;0.28;;;;;;;7.68;37.46;99825.41;4442943;32;20077;-70
2021/11/28 06:22:40;;;;;;;3.72;0.30;;;;;;;7.38;37.48;99826.59;4444797;32;20449;-70
2021/11/28 06:25:06;;;;;;;2.22;0.95;;;;;;;7.56;37.26;99831.72;4442549;32;20045;-69
2021/11/28 06:27:32;;;;;;;5.35;0.32;;;;;;;7.66;37.52;99833.44;4443417;32;20114;-69
2021/11/28 06:29:58;;;;;;;2.70;0.47;;;;;;;7.35;37.37;99823.88;4440910;32;20030;-69
2021/11/28 06:32:24;;;;;;;2.92;0.60;;;;;;;7.35;37.32;99826.66;4444531;32;20080;-70
2021/11/28 06:34:51;;;;;;;2.87;0.50;;;;;;;7.61;37.01;99829.16;4445408;32;20545;-69
2021/11/28 06:37:17;;;;;;;5.43;0.77;;;;;;;7.57;37.38;99819.28;4442752;32;20060;-69
2021/11/28 06:39:42;;;;;;;3.65;0.65;;;;;;;7.58;37.40;99824.44;4440431;32;20084;-69
2021/11/28 06:42:08;;;;;;;4.43;0.50;;;;;;;7.83;37.07;99826.59;4442550;32;20099;-69
2021/11/28 06:44:34;;;;;;;5.18;0.77;;;;;;;7.85;36.97;99832.50;4444002;32;20064;-69
2021/11/28 06:47:00;;;;;;;4.57;0.77;;;;;;;7.79;37.27;99818.28;4444322;32;20108;-69
2021/11/28 06:49:27;;;;;;;2.45;0.50;;;;;;;7.66;37.03;99814.62;4441712;32;20438;-69
2021/11/28 06:51:55;;;;;;;5.28;0.60;;;;;;;7.84;36.98;99814.16;4442646;32;20122;-69
2021/11/28 06:54:21;;;;;;;4.07;0.40;;;;;;;7.93;36.85;99806.69;4441061;32;20037;-69
2021/11/28 06:56:47;;;;;;;4.15;0.65;;;;;;;7.76;36.85;99818.34;4445295;32;20559;-70
2021/11/28 06:59:13;;;;;;;5.80;0.60;;;;;;;7.42;37.35;99809.69;4442107;32;20505;-69
2021/11/28 07:01:39;;;;;;;9.10;0.85;;;;;;;7.43;37.32;99817.63;4442486;32;20438;-69
2021/11/28 07:04:05;;;;;;;3.80;0.50;;;;;;;7.91;36.71;99813.94;4442291;32;20045;-70
2021/11/28 07:06:30;;;;;;;1.98;0.43;;;;;;;7.79;36.83;99823.88;4428280;32;20243;-69
2021/11/28 07:08:56;;;;;;;6.40;0.80;;;;;;;7.51;36.99;99823.84;4440731;32;20079;-69
2021/11/28 07:11:21;;;;;;;4.07;0.37;;;;;;;7.71;36.50;99816.88;4442236;32;20466;-69
2021/11/28 07:13:49;;;;;;;7.65;0.60;;;;;;;7.88;36.33;99803.63;4441808;32;20085;-69
2021/11/28 07:16:15;;;;;;;4.10;0.43;;;;;;;7.75;36.55;99812.00;4444636;32;20373;-69
2021/11/28 07:18:43;;;;;;;4.55;0.50;;;;;;;8.10;36.15;99804.59;4441505;32;20180;-70
2021/11/28 07:21:10;;;;;;;3.78;0.45;;;;;;;8.02;36.08;99806.03;4442295;32;20068;-69
2021/11/28 07:23:36;;;;;;;5.43;0.70;;;;;;;8.00;36.55;99806.47;4441760;32;20073;-69
2021/11/28 07:26:03;;;;;;;3.42;0.70;;;;;;;7.93;36.47;99805.88;4441955;32;20129;-71
2021/11/28 07:28:29;;;;;;;2.62;0.70;;;;;;;7.99;36.50;99798.50;4441555;32;20422;-69
2021/11/28 07:30:54;;;;;;;2.97;0.43;;;;;;;7.95;36.47;99798.59;4442450;32;20080;-69
2021/11/28 07:33:20;;;;;;;3.35;0.40;;;;;;;7.92;36.66;99798.72;4443770;32;20076;-69
2021/11/28 07:35:46;;;;;;;5.50;0.40;;;;;;;8.08;36.45;99807.06;4440349;32;20188;-70
2021/11/28 07:38:12;;;;;;;3.17;0.30;;;;;;;7.94;36.44;99804.66;4441949;32;20459;-69
2021/11/28 07:40:38;;;;;;;2.58;0.68;;;;;;;8.09;36.30;99808.63;4441312;32;20406;-69
2021/11/28 07:43:04;;;;;;;3.30;0.60;;;;;;;7.94;36.54;99808.25;4442936;32;20093;-70
2021/11/28 07:45:30;;;;;;;5.68;0.50;;;;;;;7.89;36.44;99808.78;4441777;32;20068;-69
2021/11/28 07:47:55;;;;;;;6.22;0.40;;;;;;;8.03;36.34;99797.19;4441335;32;20085;-70
2021/11/28 07:50:21;;;;;;;2.40;0.22;;;;;;;7.86;36.40;99806.09;4441711;32;20152;-69
2021/11/28 07:52:46;;;;;;;4.32;0.60;;;;;;;8.01;36.17;99802.44;4440089;32;20076;-70
2021/11/28 07:55:12;;;;;;;5.55;0.50;;;;;;;7.88;36.98;99798.03;4443615;32;20048;-69
2021/11/28 07:57:38;;;;;;;2.22;0.40;;;;;;;7.92;36.35;99801.53;4442380;32;20438;-69
2021/11/28 08:00:06;;;;;;;3.22;0.50;;;;;;;8.03;36.32;99799.19;4441122;32;20522;-69
2021/11/28 08:02:32;;;;;;;1.98;0.55;;;;;;;8.32;36.11;99804.78;4442456;32;20045;-69
2021/11/28 08:04:58;;;;;;;2.05;0.40;;;;;;;8.18;36.17;99808.75;4441689;32;20040;-69
2021/11/28 08:07:23;;;;;;;3.92;0.90;;;;;;;8.16;36.24;99812.00;4439875;32;20132;-69
2021/11/28 08:09:49;;;;;;;3.00;0.95;;;;;;;8.16;35.86;99805.59;4439047;32;20026;-69
2021/11/28 08:12:16;;;;;;;5.93;1.00;;;;;;;8.14;36.10;99808.09;4440772;32;20458;-70
2021/11/28 08:14:42;;;;;;;5.75;0.30;;;;;;;8.30;36.03;99818.44;4443077;32;20117;-70
2021/11/28 08:17:08;;;;;;;2.15;0.55;;;;;;;8.35;36.01;99823.53;4443134;32;20151;-69
2021/11/28 08:19:33;;;;;;;3.80;0.70;;;;;;;8.28;35.71;99821.69;4441841;32;20558;-69
2021/11/28 08:21:59;;;;;;;3.58;0.60;;;;;;;8.35;35.69;99826.31;4439954;32;20081;-69
2021/11/28 08:24:26;;;;;;;4.53;0.50;;;;;;;8.44;35.73;99832.06;4443456;32;20040;-69
2021/11/28 08:26:52;;;;;;;4.68;0.70;;;;;;;8.04;36.08;99828.81;4441222;32;20467;-69
2021/11/28 08:29:17;;;;;;;1.65;0.45;;;;;;;8.50;35.29;99828.25;4440390;32;20080;-70
2021/11/28 08:31:46;;;;;;;1.42;0.60;;;;;;;8.58;35.16;99824.00;4441849;32;20151;-69
2021/11/28 08:34:12;;;;;;;6.80;2.25;;;;;;;8.77;35.11;99828.59;4442797;32;20065;-69
2021/11/28 08:36:39;;;;;;;1.80;0.52;;;;;;;8.92;34.77;99829.75;4442243;32;20045;-69
2021/11/28 08:39:06;;;;;;;2.58;0.55;;;;;;;9.10;34.67;99844.00;4439184;32;20110;-69
2021/11/28 08:41:31;;;;;;;11.85;0.70;;;;;;;9.34;34.63;99850.03;4442282;32;20065;-69
2021/11/28 08:43:57;;;;;;;3.03;0.52;;;;;;;9.36;34.51;99842.72;4442715;32;20088;-69
2021/11/28 08:46:24;;;;;;;4.07;0.85;;;;;;;9.39;33.88;99847.41;4441877;32;20192;-69
2021/11/28 08:48:53;;;;;;;1.73;0.60;;;;;;;9.73;33.73;99844.62;4439664;32;20111;-69
2021/11/28 08:51:21;;;;;;;3.75;0.50;;;;;;;9.59;33.51;99836.72;4441705;32;20131;-70
2021/11/28 08:53:49;;;;;;;3.62;0.47;;;;;;;9.91;33.19;99842.00;4440515;32;20040;-69
2021/11/28 08:56:14;;;;;;;1.85;0.32;;;;;;;10.06;33.06;99842.25;4442500;32;20128;-69
2021/11/28 08:58:42;;;;;;;3.75;1.10;;;;;;;10.04;32.79;99839.91;4439046;32;20693;-69
2021/11/28 09:01:07;;;;;;;1.92;0.57;;;;;;;10.44;32.77;99842.09;4440648;32;20025;-69
2021/11/28 09:03:33;;;;;;;4.15;0.40;;;;;;;10.75;31.85;99852.16;4441680;32;20103;-69
2021/11/28 09:05:59;;;;;;;1.75;0.40;;;;;;;10.94;31.85;99845.34;4440456;32;20067;-69
2021/11/28 09:08:24;;;;;;;7.53;1.15;;;;;;;11.42;31.65;99838.16;4440436;32;20378;-69
2021/11/28 09:10:51;;;;;;;2.17;0.47;;;;;;;11.61;31.70;99826.47;4439844;32;20041;-70
2021/11/28 09:13:16;;;;;;;3.20;0.70;;;;;;;12.15;31.54;99842.63;4442324;32;20698;-69
2021/11/28 09:15:43;;;;;;;5.75;0.88;;;;;;;12.38;31.30;99836.34;4444430;32;20072;-69
2021/11/28 09:18:16;;;;;;;5.57;0.60;;;;;;;12.68;30.26;99837.38;4444754;32;20104;-69
2021/11/28 09:20:49;;;;;;;3.30;0.90;;;;;;;13.02;30.22;99842.63;4443149;32;20045;-69
2021/11/28 09:25:51;;;;;;;2.58;0.98;;;;;;;14.72;27.43;99859.62;3954474;32;15722592;-69
2021/11/28 09:28:17;;;;;;;5.62;1.30;;;;;;;14.72;27.43;99859.62;4425056;32;20081;-69
2021/11/28 09:30:43;;;;;;;4.03;1.23;;;;;;;14.49;26.88;99854.06;4426454;32;20312;-69
2021/11/28 09:33:09;;;;;;;6.50;0.77;;;;;;;14.78;27.27;99857.69;4426854;32;20547;-69
2021/11/28 09:35:35;;;;;;;3.00;0.68;;;;;;;14.60;26.17;99851.44;4425183;32;20065;-69
2021/11/28 09:38:00;;;;;;;2.83;0.73;;;;;;;14.41;25.96;99859.31;4412953;32;20437;-69
2021/11/28 09:40:26;;;;;;;2.45;0.52;;;;;;;13.81;26.34;99848.31;4423619;32;20095;-70
2021/11/28 09:42:55;;;;;;;2.42;0.57;;;;;;;13.61;26.33;99853.78;4426437;32;20461;-69
2021/11/28 09:45:23;;;;;;;1.60;0.68;;;;;;;13.78;27.56;99863.41;4425196;32;20083;-69
2021/11/28 09:47:49;;;;;;;2.58;0.50;;;;;;;13.65;27.58;99857.22;4426147;32;20080;-70
2021/11/28 09:50:17;;;;;;;1.67;0.45;;;;;;;13.72;27.08;99859.66;4426817;32;20550;-69
2021/11/28 09:52:44;;;;;;;4.30;0.70;;;;;;;13.16;27.83;99853.25;4410418;32;20029;-70
2021/11/28 09:55:12;;;;;;;4.28;0.80;;;;;;;13.54;27.29;99851.31;4411436;32;20087;-70
2021/11/28 09:57:40;;;;;;;4.30;0.82;;;;;;;13.43;27.89;99851.06;4425449;32;20422;-70
2021/11/28 10:00:08;;;;;;;3.53;0.52;;;;;;;13.58;27.64;99842.66;4424953;32;20233;-70
2021/11/28 10:02:36;;;;;;;2.62;0.65;;;;;;;13.58;27.27;99849.09;4426735;32;20143;-70
2021/11/28 10:05:05;;;;;;;1.55;0.55;;;;;;;13.60;26.96;99843.72;4428516;32;20069;-69
2021/11/28 10:07:31;;;;;;;5.40;0.88;;;;;;;14.00;27.10;99832.00;4413246;32;20080;-70
2021/11/28 10:09:57;;;;;;;3.05;0.73;;;;;;;13.74;26.90;99836.56;4424883;32;20080;-70
2021/11/28 10:12:26;;;;;;;2.53;0.98;;;;;;;13.90;26.94;99834.09;4423355;32;20457;-70
2021/11/28 10:14:55;;;;;;;3.08;0.70;;;;;;;13.87;26.87;99834.31;4427035;32;20147;-70
2021/11/28 10:17:24;;;;;;;3.08;0.60;;;;;;;13.91;26.85;99821.53;4426072;32;20080;-70
2021/11/28 10:19:50;;;;;;;4.07;0.82;;;;;;;13.88;27.01;99818.87;4425351;32;20116;-70
2021/11/28 10:22:16;;;;;;;2.97;0.60;;;;;;;13.74;27.35;99820.41;4424492;32;20411;-70
2021/11/28 10:25:02;;;;;;;6.25;0.68;;;;;;;13.77;26.86;99825.09;4426021;32;21410;-70
2021/11/28 10:30:14;;;;;;;3.37;0.88;;;;;;;13.67;27.06;99814.31;3983459;32;15022826;-70
2021/11/28 10:32:42;;;;;;;1.90;0.60;;;;;;;13.89;27.13;99815.56;4439854;32;20036;-70
2021/11/28 10:35:10;;;;;;;3.33;0.73;;;;;;;13.62;27.60;99812.16;4441340;32;20095;-70
2021/11/28 10:37:42;;;;;;;3.62;0.80;;;;;;;13.70;27.28;99816.19;4428295;32;20058;-70
2021/11/28 10:40:10;;;;;;;2.75;0.82;;;;;;;14.16;27.32;99810.94;4431108;32;20098;-70
2021/11/28 10:42:37;;;;;;;3.50;0.90;;;;;;;14.29;26.44;99806.59;4441114;32;20060;-69
2021/11/28 10:53:19;;;;;;;3.72;1.20;;;;;;;15.81;25.13;99803.09;3984211;32;15023969;-69
2021/11/28 10:55:49;;;;;;;3.92;0.90;;;;;;;15.81;25.13;99803.09;4437886;32;20037;-71
2021/11/28 11:06:25;;;;;;;3.67;0.70;;;;;;;15.33;25.29;99789.78;3981712;32;15023151;-69
2021/11/28 11:09:11;;;;;;;1.58;0.75;;;;;;;15.33;25.29;99789.78;4431922;32;20513;-69
2021/11/28 11:11:37;;;;;;;2.42;0.60;;;;;;;14.94;25.62;99791.25;4433345;32;20056;-69
2021/11/28 11:14:05;;;;;;;2.60;0.62;;;;;;;14.96;25.86;99791.53;4436807;32;20393;-70
2021/11/28 11:24:45;;;;;;;3.03;0.77;;;;;;;14.86;25.06;99773.09;3997319;31;15025128;-70
2021/11/28 11:27:15;;;;;;;1.98;0.90;;;;;;;14.91;25.52;99778.09;4452928;32;20025;-70
2021/11/28 11:29:48;;;;;;;2.22;0.55;;;;;;;15.10;25.63;99771.66;4438559;32;20080;-69
2021/11/28 11:32:14;;;;;;;4.70;0.85;;;;;;;14.49;25.69;99771.97;4453321;32;20100;-69
2021/11/28 11:34:48;;;;;;;3.47;0.77;;;;;;;14.48;26.06;99776.06;4453687;32;20073;-70
2021/11/28 11:37:16;;;;;;;2.53;0.70;;;;;;;14.75;25.92;99768.03;4437892;32;20133;-70
2021/11/28 11:39:45;;;;;;;3.97;0.47;;;;;;;14.58;25.69;99764.16;4449834;32;20068;-69
2021/11/28 11:42:13;;;;;;;2.75;0.90;;;;;;;14.53;26.08;99764.03;4454155;32;20037;-70
2021/11/28 11:44:42;;;;;;;1.10;0.60;;;;;;;13.89;26.24;99758.22;4454158;32;20081;-69
2021/11/28 11:47:07;;;;;;;3.17;0.57;;;;;;;13.27;26.92;99763.88;4453474;32;20554;-69
2021/11/28 11:49:38;;;;;;;3.72;0.57;;;;;;;13.43;26.95;99766.28;4451653;32;20549;-69
2021/11/28 11:52:04;;;;;;;3.20;0.90;;;;;;;14.01;26.61;99763.63;4453807;32;20520;-71
2021/11/28 11:54:39;;;;;;;4.00;0.60;;;;;;;13.98;26.65;99753.28;4437547;32;20089;-70
2021/11/28 11:57:11;;;;;;;4.32;1.33;;;;;;;14.06;26.02;99754.44;4454153;32;20033;-70
2021/11/28 12:02:12;;;;;;;3.78;0.70;;;;;;;13.76;26.18;99755.66;3980723;32;15022948;-69
2021/11/28 12:04:45;;;;;;;1.52;0.62;;;;;;;13.72;26.43;99759.94;4435056;32;20100;-69
2021/11/28 12:07:11;;;;;;;2.78;0.80;;;;;;;13.67;26.94;99767.06;4433764;32;20134;-69
2021/11/28 12:09:37;;;;;;;2.42;0.65;;;;;;;13.68;27.30;99765.78;4432945;32;20085;-70
2021/11/28 12:12:07;;;;;;;1.70;0.62;;;;;;;13.88;26.85;99754.63;4432107;32;20165;-70
2021/11/28 12:14:34;;;;;;;1.92;0.80;;;;;;;14.02;26.48;99758.72;4435055;32;20103;-70
2021/11/28 12:17:41;;;;;;;5.95;1.48;;;;;;;13.84;26.53;99756.84;4435961;32;20108;-70